»·PEaware :: DCM205 KRDD-KMRY

DCM205 :: KRDD-KMRY

FLIGHT INFORMATION

Flight Status: Arrived
Operator:
DotCom
More flights by this operator :: More flights under this callsign
Pilot: Ben W. (5837)
Aircraft: DEHAVILLAND DASH 8 400
(DH8D)
More flights by this aircraft type
Origin: KRDD Redding Mun
United States
Destination: KMRY Monterey Peninsula
United States
More flights between these airports :: More routes between these airports
Route: HOMAN3 RBL ENI PYE V27 SHOEY
File this flight plan on PilotEdge
Remarks:
Altitude:
(Current/Filed)
23,000ft
Speed:
(Current/Filed)
255kts
Departed: 11-Jul-20 12:51 PM
Arrived: 11-Jul-20 01:53 PM
Distance/Time
Traveled:
236nm/1:01
Distance/Time
To Go:
Arrived

Flight Plot

Page will automatically refresh every two minutes.

Flight plan parsing failed; only flown route is shown


Map Options




Map Legend


Flown Route
Filed Route
Departure Airport
Arrival Airport
Navaid (VOR, NDB)
Fix

Horizontal Profiles

Position Reports

Time Latitude Longitude Heading Altitude Ground
Speed
11-Jul-20 12:25 40.505096 -122.299163 316 510ft 0kts
11-Jul-20 12:26 40.505096 -122.299163 316 510ft 0kts
11-Jul-20 12:27 40.505096 -122.299163 316 510ft 0kts
11-Jul-20 12:28 40.505096 -122.299163 316 510ft 0kts
11-Jul-20 12:29 40.505096 -122.299163 316 510ft 0kts
11-Jul-20 12:30 40.505096 -122.299163 316 510ft 0kts
11-Jul-20 12:31 40.505096 -122.299163 316 510ft 0kts
11-Jul-20 12:32 40.505096 -122.299163 316 510ft 0kts
11-Jul-20 12:33 40.505096 -122.299163 316 510ft 0kts
11-Jul-20 12:34 40.505096 -122.299163 316 510ft 0kts
11-Jul-20 12:35 40.505096 -122.299163 316 510ft 0kts
11-Jul-20 12:36 40.505096 -122.299163 316 510ft 0kts
11-Jul-20 12:37 40.505096 -122.299163 316 510ft 0kts
11-Jul-20 12:38 40.505096 -122.299163 316 510ft 0kts
11-Jul-20 12:39 40.505096 -122.299163 316 510ft 0kts
11-Jul-20 12:40 40.505096 -122.299162 316 510ft 0kts
11-Jul-20 12:41 40.504590 -122.298495 316 510ft 2kts
11-Jul-20 12:42 40.504253 -122.298224 353 510ft 0kts
11-Jul-20 12:43 40.504253 -122.298224 353 510ft 0kts
11-Jul-20 12:44 40.506241 -122.298501 353 510ft 10kts
11-Jul-20 12:45 40.508374 -122.297229 44 510ft 10kts
11-Jul-20 12:46 40.510967 -122.296328 0 510ft 14kts
11-Jul-20 12:47 40.515170 -122.296304 359 510ft 11kts
11-Jul-20 12:48 40.519133 -122.296281 0 510ft 10kts
11-Jul-20 12:49 40.518775 -122.294880 180 510ft 37kts
11-Jul-20 12:50 40.489575 -122.281907 112 1789ft 146kts
11-Jul-20 12:52 40.467895 -122.231915 125 4055ft 156kts
11-Jul-20 12:53 40.437611 -122.179965 130 5913ft 190kts
11-Jul-20 12:54 40.391278 -122.141755 180 7646ft 207kts
11-Jul-20 12:55 40.332020 -122.154482 192 9254ft 228kts
11-Jul-20 12:56 40.269703 -122.175525 196 11053ft 231kts
11-Jul-20 12:57 40.207789 -122.197729 197 12692ft 232kts
11-Jul-20 12:58 40.144648 -122.220213 197 14124ft 241kts
11-Jul-20 12:59 40.080722 -122.255387 217 14772ft 255kts
11-Jul-20 13:00 40.024021 -122.312298 218 15787ft 257kts
11-Jul-20 13:01 39.967754 -122.368975 218 16792ft 257kts
11-Jul-20 13:02 39.910795 -122.426278 218 17639ft 260kts
11-Jul-20 13:03 39.853196 -122.484111 219 18420ft 261kts
11-Jul-20 13:04 39.796858 -122.540533 219 19492ft 254kts
11-Jul-20 13:05 39.740582 -122.596852 219 20261ft 257kts
11-Jul-20 13:06 39.683435 -122.653788 219 20968ft 260kts
11-Jul-20 13:07 39.627265 -122.709625 219 21993ft 250kts
11-Jul-20 13:08 39.571598 -122.764983 219 22688ft 253kts
11-Jul-20 13:09 39.514977 -122.821102 219 23053ft 265kts
11-Jul-20 13:09 39.464604 -122.870978 219 23067ft 280kts
11-Jul-20 13:11 39.390480 -122.944117 219 23069ft 294kts
11-Jul-20 13:12 39.324815 -123.008708 219 23068ft 301kts
11-Jul-20 13:12 39.269093 -123.063420 219 23067ft 304kts
11-Jul-20 13:14 39.190054 -123.140854 218 23055ft 308kts
11-Jul-20 13:14 39.133022 -123.196547 218 23055ft 309kts
11-Jul-20 13:15 39.061771 -123.258568 199 23050ft 315kts
11-Jul-20 13:16 38.973845 -123.240686 167 23056ft 329kts
11-Jul-20 13:17 38.886766 -123.204278 166 23056ft 331kts
11-Jul-20 13:18 38.799227 -123.167367 166 23054ft 331kts
11-Jul-20 13:19 38.711654 -123.130516 166 23053ft 332kts
11-Jul-20 13:20 38.624032 -123.093863 166 23053ft 332kts
11-Jul-20 13:21 38.536385 -123.057173 166 23053ft 332kts
11-Jul-20 13:22 38.448429 -123.020541 165 23055ft 333kts
11-Jul-20 13:23 38.360480 -122.983921 166 23056ft 333kts
11-Jul-20 13:24 38.272503 -122.947509 165 23057ft 333kts
11-Jul-20 13:25 38.184488 -122.911023 165 23051ft 333kts
11-Jul-20 13:26 38.096627 -122.874843 165 23067ft 333kts
11-Jul-20 13:27 38.008979 -122.837286 164 23062ft 334kts
11-Jul-20 13:28 37.921148 -122.799120 164 23063ft 334kts
11-Jul-20 13:29 37.833304 -122.760815 164 23074ft 334kts
11-Jul-20 13:30 37.745034 -122.722772 164 22475ft 342kts
11-Jul-20 13:31 37.655842 -122.684423 164 20971ft 336kts
11-Jul-20 13:32 37.568369 -122.646798 164 19470ft 330kts
11-Jul-20 13:33 37.482583 -122.610049 164 17973ft 324kts
11-Jul-20 13:34 37.397950 -122.573729 163 16470ft 317kts
11-Jul-20 13:35 37.316860 -122.539200 163 14966ft 300kts
11-Jul-20 13:36 37.238432 -122.505788 162 13469ft 299kts
11-Jul-20 13:37 37.160060 -122.472539 162 11973ft 298kts
11-Jul-20 13:38 37.083473 -122.436039 149 10470ft 292kts
11-Jul-20 13:39 37.019895 -122.378983 145 9671ft 273kts
11-Jul-20 13:40 36.958085 -122.323877 145 8318ft 272kts
11-Jul-20 13:41 36.896914 -122.269637 145 7044ft 267kts
11-Jul-20 13:42 36.836992 -122.216505 144 5791ft 263kts
11-Jul-20 13:43 36.777836 -122.164233 144 5018ft 257kts
11-Jul-20 13:44 36.720586 -122.113629 144 4298ft 252kts
11-Jul-20 13:45 36.664984 -122.061091 134 3300ft 249kts
11-Jul-20 13:46 36.636618 -121.986878 99 3062ft 237kts
11-Jul-20 13:47 36.625600 -121.907130 101 2360ft 227kts
11-Jul-20 13:48 36.611021 -121.837379 104 1859ft 189kts
11-Jul-20 13:49 36.596679 -121.778537 123 1800ft 170kts
11-Jul-20 13:50 36.572381 -121.801296 289 889ft 154kts
11-Jul-20 13:51 36.585804 -121.841059 294 213ft 106kts
11-Jul-20 13:52 36.588637 -121.850494 214 212ft 7kts
11-Jul-20 13:53 36.587700 -121.849837 232 212ft 2kts
11-Jul-20 13:54 36.587660 -121.849916 238 212ft 0kts
11-Jul-20 13:55 36.587660 -121.849916 238 212ft 0kts
11-Jul-20 13:56 36.587660 -121.849916 238 212ft 0kts
11-Jul-20 13:57 36.587660 -121.849916 238 212ft 0kts
11-Jul-20 13:58 36.587660 -121.849916 238 212ft 0kts
11-Jul-20 13:59 36.587660 -121.849916 238 212ft 0kts
11-Jul-20 14:00 36.587660 -121.849916 238 212ft 0kts
11-Jul-20 14:01 36.587660 -121.849916 238 212ft 0kts
11-Jul-20 14:02 36.587660 -121.849916 238 212ft 0kts
11-Jul-20 14:03 36.587660 -121.849916 238 212ft 0kts
11-Jul-20 14:04 36.587660 -121.849916 238 212ft 0kts
11-Jul-20 14:05 36.587660 -121.849916 238 212ft 0kts
11-Jul-20 14:06 36.587660 -121.849916 238 212ft 0kts

Navigation Log

Ident Type
Flight plan parsing failed, navigation log unavailable